createdAt,value
2023-04-09T00:01:10.511Z,102356.41
2023-04-09T00:03:39.527Z,102360.56
2023-04-09T00:06:06.966Z,102361.28
2023-04-09T00:08:34.129Z,102361.19
2023-04-09T00:11:01.129Z,102360.31
2023-04-09T00:13:37.902Z,102358.47
2023-04-09T00:16:07.987Z,102367.88
2023-04-09T00:18:34.803Z,102362.50
2023-04-09T00:21:01.611Z,102360.72
2023-04-09T00:23:28.902Z,102357.13
2023-04-09T00:25:56.291Z,102351.94
2023-04-09T00:28:23.789Z,102363.91
2023-04-09T00:30:50.918Z,102363.91
2023-04-09T00:33:18.191Z,102365.59
2023-04-09T00:35:45.764Z,102356.88
2023-04-09T00:38:12.642Z,102360.22
2023-04-09T00:40:39.885Z,102359.31
2023-04-09T00:43:07.385Z,102360.00
2023-04-09T00:45:34.633Z,102361.72
2023-04-09T00:48:02.316Z,102363.47
2023-04-09T00:50:29.597Z,102359.97
2023-04-09T00:52:57.749Z,102366.81
2023-04-09T00:55:25.666Z,102363.22
2023-04-09T00:57:52.867Z,102371.84
2023-04-09T01:00:20.042Z,102363.88
2023-04-09T01:02:49.050Z,102375.94
2023-04-09T01:05:16.670Z,102369.72
2023-04-09T01:08:11.819Z,102368.88
2023-04-09T01:10:49.477Z,102366.13
2023-04-09T01:13:28.586Z,102374.78
2023-04-09T01:15:59.667Z,102366.13
2023-04-09T01:18:40.832Z,102369.06
2023-04-09T01:21:18.174Z,102363.69
2023-04-09T01:24:26.060Z,102362.69
2023-04-09T01:27:05.415Z,102361.66
2023-04-09T01:29:41.908Z,102363.34
2023-04-09T01:32:10.517Z,102368.38
2023-04-09T01:34:38.999Z,102367.47
2023-04-09T01:37:07.851Z,102364.84
2023-04-09T01:39:37.631Z,102376.84
2023-04-09T01:42:09.512Z,102366.47
2023-04-09T01:44:39.613Z,102364.66
2023-04-09T01:47:08.892Z,102367.91
2023-04-09T01:49:36.321Z,102359.22
2023-04-09T01:52:03.645Z,102364.31
2023-04-09T01:54:30.966Z,102357.25
2023-04-09T01:56:59.037Z,102361.41
2023-04-09T01:59:25.799Z,102358.63
2023-04-09T02:02:09.463Z,102355.72
2023-04-09T02:04:43.824Z,102347.84
2023-04-09T02:07:31.210Z,102354.78
2023-04-09T02:10:00.858Z,102345.88
2023-04-09T02:12:32.004Z,102355.47
2023-04-09T02:15:01.389Z,102354.47
2023-04-09T02:17:28.711Z,102354.56
2023-04-09T02:19:56.612Z,102357.19
2023-04-09T02:22:24.208Z,102349.28
2023-04-09T02:24:51.521Z,102347.63
2023-04-09T02:27:18.971Z,102341.50
2023-04-09T02:29:46.329Z,102338.81
2023-04-09T02:32:13.455Z,102340.50
2023-04-09T02:34:40.589Z,102334.25
2023-04-09T02:37:07.446Z,102331.44
2023-04-09T02:39:34.804Z,102330.63
2023-04-09T02:42:02.303Z,102331.34
2023-04-09T02:44:29.684Z,102330.56
2023-04-09T02:46:56.604Z,102331.34
2023-04-09T02:49:24.324Z,102331.34
2023-04-09T02:51:51.683Z,102333.84
2023-04-09T02:54:18.775Z,102324.19
2023-04-09T02:56:46.408Z,102318.09
2023-04-09T02:59:13.351Z,102317.16
2023-04-09T03:01:42.086Z,102321.28
2023-04-09T03:04:09.161Z,102322.00
2023-04-09T03:06:36.351Z,102323.78
2023-04-09T03:09:03.362Z,102314.28
2023-04-09T03:11:30.541Z,102315.97
2023-04-09T03:13:57.977Z,102320.25
2023-04-09T03:16:26.335Z,102307.19
2023-04-09T03:18:54.047Z,102316.56
2023-04-09T03:21:21.532Z,102310.59
2023-04-09T03:23:48.865Z,102307.78
2023-04-09T03:26:15.865Z,102305.91
2023-04-09T03:28:43.246Z,102310.19
2023-04-09T03:31:10.373Z,102316.06
2023-04-09T03:33:37.600Z,102303.00
2023-04-09T03:36:05.307Z,102303.00
2023-04-09T03:38:32.327Z,102307.16
2023-04-09T03:40:59.448Z,102313.97
2023-04-09T03:43:26.426Z,102307.88
2023-04-09T03:45:53.952Z,102309.56
2023-04-09T03:48:21.900Z,102311.28
2023-04-09T03:50:49.053Z,102307.75
2023-04-09T03:53:16.568Z,102305.97
2023-04-09T03:55:43.629Z,102304.97
2023-04-09T03:58:11.366Z,102304.84
2023-04-09T04:00:38.385Z,102309.16
2023-04-09T04:03:06.123Z,102311.53
2023-04-09T04:05:33.714Z,102314.97
2023-04-09T04:08:01.466Z,102310.41
2023-04-09T04:10:28.471Z,102314.59
2023-04-09T04:12:55.317Z,102319.66
2023-04-09T04:15:22.566Z,102316.16
2023-04-09T04:17:49.364Z,102311.66
2023-04-09T04:20:16.847Z,102314.16
2023-04-09T04:22:43.807Z,102314.84
2023-04-09T04:25:11.257Z,102312.25
2023-04-09T04:27:41.948Z,102313.91
2023-04-09T04:30:09.564Z,102313.81
2023-04-09T04:32:36.799Z,102315.47
2023-04-09T04:35:04.436Z,102318.75
2023-04-09T04:37:31.810Z,102316.97
2023-04-09T04:40:01.697Z,102320.16
2023-04-09T04:42:29.483Z,102315.84
2023-04-09T04:44:56.509Z,102318.22
2023-04-09T04:47:23.702Z,102318.06
2023-04-09T04:49:51.141Z,102312.88
2023-04-09T04:52:17.978Z,102318.06
2023-04-09T04:54:44.915Z,102315.47
2023-04-09T04:57:12.002Z,102321.34
2023-04-09T04:59:40.679Z,102322.34
2023-04-09T05:02:08.721Z,102319.69
2023-04-09T05:04:35.552Z,102318.69
2023-04-09T05:07:02.917Z,102328.19
2023-04-09T05:09:29.848Z,102321.22
2023-04-09T05:11:57.121Z,102320.34
2023-04-09T05:14:25.248Z,102316.81
2023-04-09T05:16:52.295Z,102315.16
2023-04-09T05:19:19.634Z,102318.69
2023-04-09T05:21:47.527Z,102323.00
2023-04-09T05:24:15.208Z,102327.09
2023-04-09T05:26:41.790Z,102329.91
2023-04-09T05:29:08.835Z,102332.50
2023-04-09T05:31:35.794Z,102326.44
2023-04-09T05:34:02.586Z,102324.84
2023-04-09T05:36:29.630Z,102328.28
2023-04-09T05:38:56.490Z,102336.28
2023-04-09T05:41:24.009Z,102332.84
2023-04-09T05:43:51.215Z,102325.09
2023-04-09T05:46:18.717Z,102321.69
2023-04-09T05:48:46.209Z,102324.34
2023-04-09T05:51:15.766Z,102321.81
2023-04-09T05:53:42.913Z,102324.47
2023-04-09T05:56:14.614Z,102325.47
2023-04-09T05:58:41.648Z,102322.28
2023-04-09T06:01:10.285Z,102323.28
2023-04-09T06:03:37.662Z,102330.38
2023-04-09T06:06:05.451Z,102324.38
2023-04-09T06:08:32.330Z,102320.28
2023-04-09T06:10:59.656Z,102321.22
2023-04-09T06:13:26.930Z,102323.91
2023-04-09T06:15:53.702Z,102322.34
2023-04-09T06:18:22.047Z,102314.69
2023-04-09T06:20:49.206Z,102322.72
2023-04-09T06:23:16.389Z,102323.69
2023-04-09T06:25:43.334Z,102323.78
2023-04-09T06:28:11.584Z,102319.50
2023-04-09T06:30:39.007Z,102322.25
2023-04-09T06:33:05.779Z,102330.19
2023-04-09T06:35:33.791Z,102322.59
2023-04-09T06:38:01.438Z,102337.38
2023-04-09T06:40:28.477Z,102334.94
2023-04-09T06:42:55.410Z,102331.63
2023-04-09T06:45:22.872Z,102331.84
2023-04-09T06:47:50.272Z,102333.72
2023-04-09T06:50:17.142Z,102339.00
2023-04-09T06:52:44.346Z,102328.75
2023-04-09T06:55:12.293Z,102326.38
2023-04-09T06:57:39.544Z,102335.22
2023-04-09T07:00:07.897Z,102332.81
2023-04-09T07:02:34.898Z,102336.44
2023-04-09T07:05:02.072Z,102345.22
2023-04-09T07:07:29.046Z,102340.19
2023-04-09T07:09:56.363Z,102342.13
2023-04-09T07:12:34.638Z,102342.31
2023-04-09T07:15:04.148Z,102342.56
2023-04-09T07:17:32.334Z,102346.28
2023-04-09T07:20:00.419Z,102344.78
2023-04-09T07:22:28.942Z,102349.34
2023-04-09T07:24:56.534Z,102348.63
2023-04-09T07:27:26.299Z,102346.38
2023-04-09T07:29:58.516Z,102345.69
2023-04-09T07:32:28.383Z,102352.94
2023-04-09T07:34:57.340Z,102354.91
2023-04-09T07:37:25.519Z,102346.72
2023-04-09T07:39:52.613Z,102345.97
2023-04-09T07:42:19.797Z,102347.84
2023-04-09T07:44:47.586Z,102344.59
2023-04-09T07:47:14.835Z,102353.47
2023-04-09T07:49:42.056Z,102344.22
2023-04-09T07:52:09.273Z,102342.69
2023-04-09T07:54:36.354Z,102344.63
2023-04-09T07:57:04.096Z,102343.97
2023-04-09T07:59:31.698Z,102349.50
2023-04-09T08:01:59.596Z,102348.84
2023-04-09T08:04:27.978Z,102344.88
2023-04-09T08:06:55.437Z,102344.31
2023-04-09T08:09:22.968Z,102337.59
2023-04-09T08:11:50.913Z,102346.63
2023-04-09T08:14:19.040Z,102337.38
2023-04-09T08:16:47.640Z,102341.09
2023-04-09T08:19:17.160Z,102337.06
2023-04-09T08:21:44.779Z,102338.22
2023-04-09T08:24:12.216Z,102330.53
2023-04-09T08:26:40.059Z,102334.16
2023-04-09T08:29:08.608Z,102333.53
2023-04-09T08:31:37.404Z,102333.97
2023-04-09T08:34:05.234Z,102337.78
2023-04-09T08:36:32.696Z,102328.50
2023-04-09T08:39:00.784Z,102330.31
2023-04-09T08:41:29.566Z,102329.72
2023-04-09T08:43:59.561Z,102319.66
2023-04-09T08:46:27.846Z,102329.31
2023-04-09T08:48:56.019Z,102336.56
2023-04-09T08:51:24.921Z,102339.38
2023-04-09T08:54:03.049Z,102341.25
2023-04-09T08:56:33.184Z,102331.91
2023-04-09T08:59:01.341Z,102339.09
2023-04-09T09:01:30.150Z,102334.84
2023-04-09T09:04:00.938Z,102336.00
2023-04-09T09:06:30.159Z,102329.06
2023-04-09T09:09:01.145Z,102325.72
2023-04-09T09:11:28.488Z,102336.19
2023-04-09T09:14:06.645Z,102330.94
2023-04-09T09:17:04.096Z,102332.91
2023-04-09T09:19:36.779Z,102324.38
2023-04-09T09:22:06.230Z,102327.09
2023-04-09T09:24:35.681Z,102313.94
2023-04-09T09:27:03.215Z,102313.97
2023-04-09T09:29:30.200Z,102312.31
2023-04-09T09:31:57.449Z,102307.97
2023-04-09T09:34:26.183Z,102312.50
2023-04-09T09:36:53.420Z,102302.13
2023-04-09T09:39:22.439Z,102310.78
2023-04-09T09:42:07.628Z,102310.75
2023-04-09T09:44:35.842Z,102291.75
2023-04-09T09:47:05.247Z,102302.25
2023-04-09T09:49:32.601Z,102311.06
2023-04-09T09:52:02.952Z,102302.34
2023-04-09T09:54:38.616Z,102299.75
2023-04-09T09:57:09.316Z,102291.94
2023-04-09T09:59:51.020Z,102302.56
2023-04-09T10:02:24.621Z,102288.66
2023-04-09T10:04:55.180Z,102294.03
2023-04-09T10:07:24.049Z,102289.75
2023-04-09T10:09:53.133Z,102294.13
2023-04-09T10:12:25.469Z,102287.16
2023-04-09T10:14:56.330Z,102274.09
2023-04-09T10:17:24.104Z,102278.44
2023-04-09T10:20:01.592Z,102281.16
2023-04-09T10:22:31.467Z,102269.78
2023-04-09T10:24:59.830Z,102273.41
2023-04-09T10:27:30.011Z,102270.84
2023-04-09T10:29:57.344Z,102275.19
2023-04-09T10:32:28.489Z,102277.00
2023-04-09T10:34:59.195Z,102277.88
2023-04-09T10:37:28.640Z,102276.16
2023-04-09T10:39:56.960Z,102266.53
2023-04-09T10:42:32.769Z,102270.00
2023-04-09T10:45:06.536Z,102260.47
2023-04-09T10:47:36.166Z,102250.97
2023-04-09T10:50:25.432Z,102252.78
2023-04-09T10:52:58.439Z,102252.78
2023-04-09T10:55:37.060Z,102252.81
2023-04-09T10:58:11.369Z,102247.66
2023-04-09T11:00:44.792Z,102254.72
2023-04-09T11:03:34.285Z,102251.19
2023-04-09T11:06:09.173Z,102254.69
2023-04-09T11:08:38.326Z,102251.19
2023-04-09T11:11:05.948Z,102247.72
2023-04-09T11:13:33.237Z,102237.22
2023-04-09T11:16:01.543Z,102244.25
2023-04-09T11:18:30.750Z,102235.53
2023-04-09T11:21:03.070Z,102233.75
2023-04-09T11:23:32.161Z,102226.81
2023-04-09T11:25:59.913Z,102223.31
2023-04-09T11:28:27.593Z,102221.56
2023-04-09T11:30:54.505Z,102226.81
2023-04-09T11:33:22.454Z,102214.56
2023-04-09T11:35:49.397Z,102209.34
2023-04-09T11:38:18.877Z,102200.53
2023-04-09T11:40:49.051Z,102210.13
2023-04-09T11:43:18.241Z,102216.22
2023-04-09T11:45:49.038Z,102210.09
2023-04-09T11:48:21.842Z,102203.94
2023-04-09T11:50:49.696Z,102210.94
2023-04-09T11:53:20.868Z,102207.41
2023-04-09T11:55:51.300Z,102202.13
2023-04-09T11:58:22.240Z,102208.25
2023-04-09T12:00:53.973Z,102204.75
2023-04-09T12:03:28.471Z,102198.59
2023-04-09T12:05:55.799Z,102207.34
2023-04-09T12:08:25.038Z,102202.06
2023-04-09T12:10:53.851Z,102195.94
2023-04-09T12:13:21.463Z,102195.94
2023-04-09T12:15:50.288Z,102195.06
2023-04-09T12:18:17.193Z,102195.84
2023-04-09T12:20:47.481Z,102195.75
2023-04-09T12:23:16.061Z,102203.34
2023-04-09T12:25:45.054Z,102196.34
2023-04-09T12:28:16.030Z,102187.56
2023-04-09T12:30:44.024Z,102193.72
2023-04-09T12:33:11.602Z,102189.38
2023-04-09T12:35:38.810Z,102197.16
2023-04-09T12:38:06.299Z,102190.03
2023-04-09T12:40:35.008Z,102191.81
2023-04-09T12:43:03.042Z,102198.06
2023-04-09T12:45:31.285Z,102184.03
2023-04-09T12:47:58.617Z,102187.38
2023-04-09T12:50:25.921Z,102184.63
2023-04-09T12:52:53.310Z,102193.91
2023-04-09T12:55:20.164Z,102188.47
2023-04-09T12:57:49.856Z,102190.03
2023-04-09T13:00:17.156Z,102190.84
2023-04-09T13:02:44.225Z,102188.88
2023-04-09T13:05:11.705Z,102186.53
2023-04-09T13:07:41.449Z,102169.16
2023-04-09T13:10:10.653Z,102175.84
2023-04-09T13:12:38.540Z,102176.47
2023-04-09T13:15:06.821Z,102168.06
2023-04-09T13:17:33.948Z,102164.59
2023-04-09T13:20:01.785Z,102166.34
2023-04-09T13:22:28.822Z,102164.16
2023-04-09T13:24:55.850Z,102160.00
2023-04-09T13:27:23.325Z,102151.97
2023-04-09T13:29:50.256Z,102149.09
2023-04-09T13:32:18.517Z,102159.66
2023-04-09T13:34:45.400Z,102146.91
2023-04-09T13:37:12.532Z,102140.63
2023-04-09T13:39:39.412Z,102141.13
2023-04-09T13:42:13.583Z,102134.72
2023-04-09T13:44:44.852Z,102139.59
2023-04-09T13:47:13.665Z,102136.16
2023-04-09T13:49:42.233Z,102136.91
2023-04-09T13:52:10.687Z,102144.06
2023-04-09T13:54:37.824Z,102144.84
2023-04-09T13:57:04.978Z,102129.59
2023-04-09T13:59:32.206Z,102138.34
2023-04-09T14:01:59.443Z,102127.94
2023-04-09T14:04:26.982Z,102130.63
2023-04-09T14:06:53.934Z,102118.31
2023-04-09T14:09:21.182Z,102118.94
2023-04-09T14:11:49.360Z,102120.56
2023-04-09T14:14:17.883Z,102117.81
2023-04-09T14:16:44.586Z,102110.63
2023-04-09T14:19:11.812Z,102103.56
2023-04-09T14:21:40.008Z,102114.84
2023-04-09T14:24:07.702Z,102109.72
2023-04-09T14:26:34.376Z,102107.28
2023-04-09T14:29:02.880Z,102104.97
2023-04-09T14:31:29.722Z,102093.56
2023-04-09T14:33:57.465Z,102095.81
2023-04-09T14:36:25.106Z,102098.50
2023-04-09T14:38:54.716Z,102097.81
2023-04-09T14:41:23.568Z,102102.22
2023-04-09T14:43:50.426Z,102104.00
2023-04-09T14:46:17.798Z,102102.75
2023-04-09T14:48:44.800Z,102103.22
2023-04-09T14:51:12.289Z,102105.31
2023-04-09T14:53:39.291Z,102094.22
2023-04-09T14:56:06.910Z,102082.75
2023-04-09T14:58:34.058Z,102086.31
2023-04-09T15:01:01.787Z,102075.47
2023-04-09T15:03:29.067Z,102081.19
2023-04-09T15:05:56.934Z,102079.44
2023-04-09T15:08:24.010Z,102080.59
2023-04-09T15:10:51.347Z,102077.44
2023-04-09T15:13:18.516Z,102075.38
2023-04-09T15:15:46.715Z,102075.59
2023-04-09T15:18:13.710Z,102069.16
2023-04-09T15:20:43.373Z,102052.84
2023-04-09T15:23:10.979Z,102071.34
2023-04-09T15:25:39.063Z,102062.78
2023-04-09T15:28:06.462Z,102062.97
2023-04-09T15:30:35.278Z,102071.72
2023-04-09T15:33:05.561Z,102075.09
2023-04-09T15:35:34.488Z,102073.31
2023-04-09T15:38:01.578Z,102068.19
2023-04-09T15:40:29.190Z,102060.38
2023-04-09T15:42:56.293Z,102072.28
2023-04-09T15:45:23.333Z,102078.09
2023-04-09T15:47:50.267Z,102065.56
2023-04-09T15:50:17.496Z,102069.34
2023-04-09T15:52:44.662Z,102063.53
2023-04-09T15:55:11.785Z,102069.53
2023-04-09T15:57:40.176Z,102074.81
2023-04-09T16:00:10.973Z,102079.63
2023-04-09T16:02:39.122Z,102075.75
2023-04-09T16:05:07.710Z,102069.44
2023-04-09T16:07:34.833Z,102071.69
2023-04-09T16:10:02.504Z,102070.25
2023-04-09T16:12:29.414Z,102071.63
2023-04-09T16:14:56.537Z,102061.97
2023-04-09T16:17:24.003Z,102059.56
2023-04-09T16:19:51.110Z,102054.72
2023-04-09T16:22:18.185Z,102056.19
2023-04-09T16:24:45.336Z,102049.31
2023-04-09T16:27:16.959Z,102036.41
2023-04-09T16:29:46.300Z,102041.28
2023-04-09T16:32:13.395Z,102030.34
2023-04-09T16:34:40.885Z,102031.72
2023-04-09T16:37:08.192Z,102024.28
2023-04-09T16:39:35.451Z,102022.56
2023-04-09T16:42:02.708Z,102027.09
2023-04-09T16:44:29.614Z,102021.13
2023-04-09T16:46:57.727Z,102025.28
2023-04-09T16:49:24.760Z,102029.78
2023-04-09T16:51:53.201Z,102026.81
2023-04-09T16:54:20.760Z,102034.84
2023-04-09T16:56:48.772Z,102028.56
2023-04-09T16:59:18.483Z,102020.75
2023-04-09T17:01:46.064Z,102025.00
2023-04-09T17:04:14.020Z,102028.59
2023-04-09T17:06:41.136Z,102035.00
2023-04-09T17:09:08.381Z,102036.09
2023-04-09T17:11:35.646Z,102040.16
2023-04-09T17:14:02.647Z,102038.47
2023-04-09T17:16:29.771Z,102027.59
2023-04-09T17:18:56.918Z,102034.84
2023-04-09T17:21:24.235Z,102040.41
2023-04-09T17:23:51.455Z,102034.53
2023-04-09T17:26:18.973Z,102037.25
2023-04-09T17:28:47.222Z,102050.69
2023-04-09T17:31:16.054Z,102049.06
2023-04-09T17:33:48.025Z,102044.94
2023-04-09T17:36:18.463Z,102039.84
2023-04-09T17:38:47.333Z,102046.03
2023-04-09T17:41:14.640Z,102042.56
2023-04-09T17:43:41.791Z,102051.38
2023-04-09T17:46:10.486Z,102043.56
2023-04-09T17:48:38.949Z,102051.53
2023-04-09T17:51:06.843Z,102053.31
2023-04-09T17:53:33.565Z,102049.84
2023-04-09T17:56:02.962Z,102055.13
2023-04-09T17:58:29.962Z,102053.44
2023-04-09T18:00:58.828Z,102054.31
2023-04-09T18:03:26.198Z,102050.81
2023-04-09T18:05:54.328Z,102053.44
2023-04-09T18:08:21.942Z,102053.44
2023-04-09T18:11:08.854Z,102055.25
2023-04-09T18:13:38.555Z,102057.00
2023-04-09T18:16:10.912Z,102055.25
2023-04-09T18:18:38.042Z,102053.50
2023-04-09T18:21:06.899Z,102054.41
2023-04-09T18:23:34.932Z,102065.78
2023-04-09T18:26:01.857Z,102068.41
2023-04-09T18:28:29.316Z,102072.78
2023-04-09T18:30:57.836Z,102071.03
2023-04-09T18:33:25.763Z,102061.41
2023-04-09T18:35:53.043Z,102062.28
2023-04-09T18:38:21.064Z,102060.47
2023-04-09T18:40:48.476Z,102059.59
2023-04-09T18:43:15.508Z,102062.13
2023-04-09T18:45:42.889Z,102063.00
2023-04-09T18:48:09.826Z,102069.94
2023-04-09T18:50:37.518Z,102065.50
2023-04-09T18:53:06.758Z,102065.50
2023-04-09T18:55:38.346Z,102066.34
2023-04-09T18:58:12.411Z,102069.78
2023-04-09T19:00:43.627Z,102069.78
2023-04-09T19:03:11.160Z,102072.38
2023-04-09T19:05:38.760Z,102077.59
2023-04-09T19:08:07.109Z,102074.91
2023-04-09T19:10:36.146Z,102074.00
2023-04-09T19:13:03.396Z,102072.22
2023-04-09T19:15:30.528Z,102070.47
2023-04-09T19:17:57.682Z,102066.06
2023-04-09T19:20:25.101Z,102072.97
2023-04-09T19:22:54.693Z,102084.25
2023-04-09T19:25:22.769Z,102082.47
2023-04-09T19:27:50.623Z,102088.53
2023-04-09T19:30:17.942Z,102089.41
2023-04-09T19:32:46.075Z,102092.81
2023-04-09T19:35:12.996Z,102091.06
2023-04-09T19:37:40.376Z,102087.56
2023-04-09T19:40:09.557Z,102084.00
2023-04-09T19:42:36.724Z,102081.28
2023-04-09T19:45:05.666Z,102080.34
2023-04-09T19:47:34.820Z,102081.19
2023-04-09T19:50:02.576Z,102075.00
2023-04-09T19:52:29.714Z,102083.69
2023-04-09T19:54:57.130Z,102090.63
2023-04-09T19:57:24.484Z,102085.34
2023-04-09T19:59:52.411Z,102080.09
2023-04-09T20:02:19.460Z,102082.69
2023-04-09T20:04:46.458Z,102085.22
2023-04-09T20:07:13.125Z,102076.47
2023-04-09T20:09:42.459Z,102082.53
2023-04-09T20:12:09.969Z,102078.97
2023-04-09T20:14:38.169Z,102086.81
2023-04-09T20:17:08.973Z,102083.28
2023-04-09T20:19:37.806Z,102080.66
2023-04-09T20:22:05.502Z,102082.47
2023-04-09T20:24:33.780Z,102080.75
2023-04-09T20:27:01.668Z,102072.88
2023-04-09T20:29:28.801Z,102067.63
2023-04-09T20:31:57.986Z,102066.72
2023-04-09T20:34:29.196Z,102071.94
2023-04-09T20:36:56.934Z,102072.81
2023-04-09T20:39:26.670Z,102053.66
2023-04-09T20:41:55.414Z,102052.72
2023-04-09T20:44:24.457Z,102058.81
2023-04-09T20:46:52.016Z,102057.06
2023-04-09T20:49:19.844Z,102051.81
2023-04-09T20:51:50.076Z,102047.47
2023-04-09T20:54:18.067Z,102048.31
2023-04-09T20:56:45.810Z,102043.94
2023-04-09T20:59:12.793Z,102041.34
2023-04-09T21:01:40.440Z,102044.81
2023-04-09T21:04:11.482Z,102043.91
2023-04-09T21:06:40.499Z,102043.09
2023-04-09T21:09:07.139Z,102035.19
2023-04-09T21:11:35.001Z,102039.50
2023-04-09T21:14:03.318Z,102036.88
2023-04-09T21:16:30.974Z,102042.97
2023-04-09T21:18:58.557Z,102042.94
2023-04-09T21:21:27.470Z,102042.81
2023-04-09T21:23:54.989Z,102037.56
2023-04-09T21:26:22.207Z,102039.28
2023-04-09T21:28:50.707Z,102042.75
2023-04-09T21:31:18.061Z,102033.97
2023-04-09T21:33:45.411Z,102037.41
2023-04-09T21:36:12.252Z,102039.19
2023-04-09T21:38:39.786Z,102039.16
2023-04-09T21:41:07.193Z,102034.84
2023-04-09T21:43:35.589Z,102025.22
2023-04-09T21:46:03.091Z,102026.13
2023-04-09T21:48:30.752Z,102020.91
2023-04-09T21:50:58.979Z,102020.00
2023-04-09T21:53:27.216Z,102015.66
2023-04-09T21:55:54.496Z,102012.97
2023-04-09T21:58:21.535Z,102012.97
2023-04-09T22:00:48.456Z,102011.22
2023-04-09T22:03:16.716Z,102014.75
2023-04-09T22:05:43.683Z,102022.53
2023-04-09T22:08:11.802Z,102030.31
2023-04-09T22:10:39.080Z,102027.59
2023-04-09T22:13:06.666Z,102031.88
2023-04-09T22:15:34.014Z,102036.19
2023-04-09T22:18:00.907Z,102043.94
2023-04-09T22:20:27.728Z,102043.88
2023-04-09T22:22:54.823Z,102049.06
2023-04-09T22:25:22.242Z,102048.97
2023-04-09T22:27:53.084Z,102045.50
2023-04-09T22:30:22.014Z,102047.13
2023-04-09T22:32:49.152Z,102057.50
2023-04-09T22:35:18.285Z,102064.44
2023-04-09T22:37:46.928Z,102057.44
2023-04-09T22:40:16.421Z,102066.88
2023-04-09T22:42:46.499Z,102065.94
2023-04-09T22:45:14.233Z,102064.25
2023-04-09T22:47:41.485Z,102065.06
2023-04-09T22:50:09.647Z,102064.13
2023-04-09T22:52:38.309Z,102055.38
2023-04-09T22:55:06.503Z,102057.09
2023-04-09T22:57:34.394Z,102065.81
2023-04-09T23:00:01.642Z,102057.97
2023-04-09T23:02:29.493Z,102064.88
2023-04-09T23:04:56.659Z,102058.72
2023-04-09T23:07:24.090Z,102067.38
2023-04-09T23:09:54.782Z,102062.16
2023-04-09T23:12:21.885Z,102056.00
2023-04-09T23:14:49.536Z,102065.59
2023-04-09T23:17:17.260Z,102055.13
2023-04-09T23:19:45.293Z,102055.13
2023-04-09T23:22:12.638Z,102058.53
2023-04-09T23:24:39.538Z,102057.59
2023-04-09T23:27:06.706Z,102048.94
2023-04-09T23:29:34.145Z,102055.81
2023-04-09T23:32:01.375Z,102054.88
2023-04-09T23:34:28.184Z,102054.78
2023-04-09T23:36:54.739Z,102054.72
2023-04-09T23:39:22.238Z,102052.94
2023-04-09T23:41:49.354Z,102050.31
2023-04-09T23:44:16.421Z,102044.19
2023-04-09T23:46:43.461Z,102039.03
2023-04-09T23:49:10.851Z,102044.25
2023-04-09T23:51:37.791Z,102031.22
2023-04-09T23:54:04.381Z,102026.84
2023-04-09T23:56:31.344Z,102028.66
2023-04-09T23:58:58.090Z,102023.41
